sensor_id;sensor_type;location;lat;lon;timestamp;P1;durP1;ratioP1;P2;durP2;ratioP2
77359;SDS011;66426;51.454;7.266;2023-06-19T00:00:33;6.53;;;3.95;;
77359;SDS011;66426;51.454;7.266;2023-06-19T00:01:34;5.63;;;4.10;;
77359;SDS011;66426;51.454;7.266;2023-06-19T00:02:35;6.68;;;4.47;;
77359;SDS011;66426;51.454;7.266;2023-06-19T00:03:36;4.50;;;3.75;;
77359;SDS011;66426;51.454;7.266;2023-06-19T00:04:37;5.13;;;3.85;;
77359;SDS011;66426;51.454;7.266;2023-06-19T00:05:38;6.75;;;3.78;;
77359;SDS011;66426;51.454;7.266;2023-06-19T00:06:39;4.85;;;3.80;;
77359;SDS011;66426;51.454;7.266;2023-06-19T00:07:42;5.93;;;3.90;;
77359;SDS011;66426;51.454;7.266;2023-06-19T00:08:43;5.22;;;4.22;;
77359;SDS011;66426;51.454;7.266;2023-06-19T00:09:43;5.18;;;3.92;;
77359;SDS011;66426;51.454;7.266;2023-06-19T00:10:44;5.95;;;3.70;;
77359;SDS011;66426;51.454;7.266;2023-06-19T00:11:45;5.28;;;3.50;;
77359;SDS011;66426;51.454;7.266;2023-06-19T00:12:46;5.55;;;4.25;;
77359;SDS011;66426;51.454;7.266;2023-06-19T00:13:47;5.05;;;3.92;;
77359;SDS011;66426;51.454;7.266;2023-06-19T00:14:50;5.90;;;3.72;;
77359;SDS011;66426;51.454;7.266;2023-06-19T00:15:51;6.15;;;4.10;;
77359;SDS011;66426;51.454;7.266;2023-06-19T00:16:52;7.18;;;4.15;;
77359;SDS011;66426;51.454;7.266;2023-06-19T00:17:53;5.43;;;4.22;;
77359;SDS011;66426;51.454;7.266;2023-06-19T00:18:54;6.25;;;4.18;;
77359;SDS011;66426;51.454;7.266;2023-06-19T00:19:57;6.75;;;4.00;;
77359;SDS011;66426;51.454;7.266;2023-06-19T00:20:58;6.28;;;3.78;;
77359;SDS011;66426;51.454;7.266;2023-06-19T00:21:59;5.20;;;4.03;;
77359;SDS011;66426;51.454;7.266;2023-06-19T00:23:02;6.22;;;4.40;;
77359;SDS011;66426;51.454;7.266;2023-06-19T00:24:03;6.45;;;3.95;;
77359;SDS011;66426;51.454;7.266;2023-06-19T00:25:05;6.03;;;3.65;;
77359;SDS011;66426;51.454;7.266;2023-06-19T00:26:06;4.78;;;3.72;;
77359;SDS011;66426;51.454;7.266;2023-06-19T00:27:07;6.40;;;3.80;;
77359;SDS011;66426;51.454;7.266;2023-06-19T00:28:09;6.40;;;4.10;;
77359;SDS011;66426;51.454;7.266;2023-06-19T00:29:12;5.78;;;4.13;;
77359;SDS011;66426;51.454;7.266;2023-06-19T00:30:13;5.20;;;3.80;;
77359;SDS011;66426;51.454;7.266;2023-06-19T00:31:15;4.90;;;3.83;;
77359;SDS011;66426;51.454;7.266;2023-06-19T00:32:16;6.45;;;4.03;;
77359;SDS011;66426;51.454;7.266;2023-06-19T00:33:17;6.25;;;4.28;;
77359;SDS011;66426;51.454;7.266;2023-06-19T00:34:18;6.03;;;4.35;;
77359;SDS011;66426;51.454;7.266;2023-06-19T00:35:19;5.75;;;4.15;;
77359;SDS011;66426;51.454;7.266;2023-06-19T00:36:22;4.93;;;3.63;;
77359;SDS011;66426;51.454;7.266;2023-06-19T00:37:26;7.60;;;4.05;;
77359;SDS011;66426;51.454;7.266;2023-06-19T00:38:33;5.15;;;3.92;;
77359;SDS011;66426;51.454;7.266;2023-06-19T00:39:34;5.75;;;4.13;;
77359;SDS011;66426;51.454;7.266;2023-06-19T00:40:36;5.65;;;4.32;;
77359;SDS011;66426;51.454;7.266;2023-06-19T00:41:37;5.72;;;4.13;;
77359;SDS011;66426;51.454;7.266;2023-06-19T00:42:38;4.55;;;3.70;;
77359;SDS011;66426;51.454;7.266;2023-06-19T00:43:39;4.93;;;3.90;;
77359;SDS011;66426;51.454;7.266;2023-06-19T00:44:40;5.10;;;4.05;;
77359;SDS011;66426;51.454;7.266;2023-06-19T00:45:42;5.85;;;3.92;;
77359;SDS011;66426;51.454;7.266;2023-06-19T00:46:43;7.18;;;4.30;;
77359;SDS011;66426;51.454;7.266;2023-06-19T00:47:44;6.47;;;4.07;;
77359;SDS011;66426;51.454;7.266;2023-06-19T00:48:46;5.68;;;3.78;;
77359;SDS011;66426;51.454;7.266;2023-06-19T00:49:47;6.50;;;3.88;;
77359;SDS011;66426;51.454;7.266;2023-06-19T00:50:48;5.40;;;3.65;;
77359;SDS011;66426;51.454;7.266;2023-06-19T00:51:50;7.20;;;4.28;;
77359;SDS011;66426;51.454;7.266;2023-06-19T00:52:51;5.50;;;3.85;;
77359;SDS011;66426;51.454;7.266;2023-06-19T00:53:54;5.05;;;3.83;;
77359;SDS011;66426;51.454;7.266;2023-06-19T00:54:55;7.03;;;3.97;;
77359;SDS011;66426;51.454;7.266;2023-06-19T00:55:56;5.20;;;3.83;;
77359;SDS011;66426;51.454;7.266;2023-06-19T00:56:59;5.88;;;4.25;;
77359;SDS011;66426;51.454;7.266;2023-06-19T00:58:01;5.32;;;4.15;;
77359;SDS011;66426;51.454;7.266;2023-06-19T00:59:03;4.97;;;3.90;;
77359;SDS011;66426;51.454;7.266;2023-06-19T01:00:07;5.20;;;3.90;;
77359;SDS011;66426;51.454;7.266;2023-06-19T01:01:08;5.40;;;3.75;;
77359;SDS011;66426;51.454;7.266;2023-06-19T01:02:09;5.25;;;3.78;;
77359;SDS011;66426;51.454;7.266;2023-06-19T01:03:11;4.70;;;3.58;;
77359;SDS011;66426;51.454;7.266;2023-06-19T01:04:12;5.75;;;3.90;;
77359;SDS011;66426;51.454;7.266;2023-06-19T01:05:13;7.07;;;3.95;;
77359;SDS011;66426;51.454;7.266;2023-06-19T01:06:17;5.60;;;3.90;;
77359;SDS011;66426;51.454;7.266;2023-06-19T01:07:25;5.40;;;4.18;;
77359;SDS011;66426;51.454;7.266;2023-06-19T01:08:43;6.78;;;4.13;;
77359;SDS011;66426;51.454;7.266;2023-06-19T01:09:52;6.05;;;4.03;;
77359;SDS011;66426;51.454;7.266;2023-06-19T01:11:02;6.13;;;4.35;;
77359;SDS011;66426;51.454;7.266;2023-06-19T01:12:06;4.88;;;3.78;;
77359;SDS011;66426;51.454;7.266;2023-06-19T01:13:15;6.18;;;4.03;;
77359;SDS011;66426;51.454;7.266;2023-06-19T01:14:21;5.63;;;3.90;;
77359;SDS011;66426;51.454;7.266;2023-06-19T01:15:26;5.43;;;4.10;;
77359;SDS011;66426;51.454;7.266;2023-06-19T01:16:27;6.20;;;4.15;;
77359;SDS011;66426;51.454;7.266;2023-06-19T01:17:29;5.30;;;4.00;;
77359;SDS011;66426;51.454;7.266;2023-06-19T01:18:31;5.15;;;3.60;;
77359;SDS011;66426;51.454;7.266;2023-06-19T01:19:33;4.97;;;3.72;;
77359;SDS011;66426;51.454;7.266;2023-06-19T01:20:34;5.45;;;3.70;;
77359;SDS011;66426;51.454;7.266;2023-06-19T01:21:35;5.72;;;4.13;;
77359;SDS011;66426;51.454;7.266;2023-06-19T01:22:38;5.25;;;3.88;;
77359;SDS011;66426;51.454;7.266;2023-06-19T01:23:39;6.00;;;3.95;;
77359;SDS011;66426;51.454;7.266;2023-06-19T01:24:40;5.95;;;3.85;;
77359;SDS011;66426;51.454;7.266;2023-06-19T01:25:41;6.70;;;3.90;;
77359;SDS011;66426;51.454;7.266;2023-06-19T01:26:42;6.13;;;4.20;;
77359;SDS011;66426;51.454;7.266;2023-06-19T01:27:46;5.40;;;4.00;;
77359;SDS011;66426;51.454;7.266;2023-06-19T01:28:47;4.72;;;3.65;;
77359;SDS011;66426;51.454;7.266;2023-06-19T01:29:48;5.20;;;3.65;;
77359;SDS011;66426;51.454;7.266;2023-06-19T01:30:50;4.75;;;3.72;;
77359;SDS011;66426;51.454;7.266;2023-06-19T01:31:53;5.72;;;3.70;;
77359;SDS011;66426;51.454;7.266;2023-06-19T01:33:00;5.55;;;3.90;;
77359;SDS011;66426;51.454;7.266;2023-06-19T01:34:07;4.85;;;3.42;;
77359;SDS011;66426;51.454;7.266;2023-06-19T01:35:11;4.40;;;3.47;;
77359;SDS011;66426;51.454;7.266;2023-06-19T01:36:15;6.85;;;3.53;;
77359;SDS011;66426;51.454;7.266;2023-06-19T01:37:17;5.15;;;3.67;;
77359;SDS011;66426;51.454;7.266;2023-06-19T01:38:20;5.85;;;4.13;;
77359;SDS011;66426;51.454;7.266;2023-06-19T01:39:25;5.75;;;4.30;;
77359;SDS011;66426;51.454;7.266;2023-06-19T01:40:27;5.20;;;3.42;;
77359;SDS011;66426;51.454;7.266;2023-06-19T01:41:32;6.35;;;4.07;;
77359;SDS011;66426;51.454;7.266;2023-06-19T01:42:34;4.05;;;3.30;;
77359;SDS011;66426;51.454;7.266;2023-06-19T01:43:37;5.25;;;3.50;;
77359;SDS011;66426;51.454;7.266;2023-06-19T01:44:39;4.95;;;3.85;;
77359;SDS011;66426;51.454;7.266;2023-06-19T01:45:40;4.63;;;3.10;;
77359;SDS011;66426;51.454;7.266;2023-06-19T01:46:41;6.00;;;3.85;;
77359;SDS011;66426;51.454;7.266;2023-06-19T01:47:42;4.70;;;3.70;;
77359;SDS011;66426;51.454;7.266;2023-06-19T01:48:43;5.22;;;3.17;;
77359;SDS011;66426;51.454;7.266;2023-06-19T01:49:44;5.40;;;3.65;;
77359;SDS011;66426;51.454;7.266;2023-06-19T01:52:55;5.25;;;3.85;;
77359;SDS011;66426;51.454;7.266;2023-06-19T01:53:57;4.80;;;3.53;;
77359;SDS011;66426;51.454;7.266;2023-06-19T01:54:58;4.90;;;3.53;;
77359;SDS011;66426;51.454;7.266;2023-06-19T01:55:59;4.75;;;3.38;;
77359;SDS011;66426;51.454;7.266;2023-06-19T01:57:00;5.95;;;3.72;;
77359;SDS011;66426;51.454;7.266;2023-06-19T01:58:01;4.40;;;3.60;;
77359;SDS011;66426;51.454;7.266;2023-06-19T01:59:02;4.97;;;3.50;;
77359;SDS011;66426;51.454;7.266;2023-06-19T02:00:04;5.57;;;3.58;;
77359;SDS011;66426;51.454;7.266;2023-06-19T02:01:10;5.18;;;3.53;;
77359;SDS011;66426;51.454;7.266;2023-06-19T02:02:11;5.65;;;4.13;;
77359;SDS011;66426;51.454;7.266;2023-06-19T02:03:12;6.45;;;3.90;;
77359;SDS011;66426;51.454;7.266;2023-06-19T02:04:13;4.93;;;3.50;;
77359;SDS011;66426;51.454;7.266;2023-06-19T02:05:14;4.72;;;3.38;;
77359;SDS011;66426;51.454;7.266;2023-06-19T02:06:15;6.05;;;3.40;;
77359;SDS011;66426;51.454;7.266;2023-06-19T02:07:16;4.88;;;3.72;;
77359;SDS011;66426;51.454;7.266;2023-06-19T02:08:17;5.10;;;3.78;;
77359;SDS011;66426;51.454;7.266;2023-06-19T02:09:20;4.57;;;3.50;;
77359;SDS011;66426;51.454;7.266;2023-06-19T02:10:21;3.97;;;3.25;;
77359;SDS011;66426;51.454;7.266;2023-06-19T02:11:21;4.85;;;3.53;;
77359;SDS011;66426;51.454;7.266;2023-06-19T02:12:22;5.05;;;3.65;;
77359;SDS011;66426;51.454;7.266;2023-06-19T02:13:24;5.90;;;4.13;;
77359;SDS011;66426;51.454;7.266;2023-06-19T02:14:25;5.20;;;3.70;;
77359;SDS011;66426;51.454;7.266;2023-06-19T02:15:26;5.80;;;4.50;;
77359;SDS011;66426;51.454;7.266;2023-06-19T02:16:27;5.60;;;3.95;;
77359;SDS011;66426;51.454;7.266;2023-06-19T02:17:28;5.40;;;3.92;;
77359;SDS011;66426;51.454;7.266;2023-06-19T02:18:29;5.28;;;3.67;;
77359;SDS011;66426;51.454;7.266;2023-06-19T02:19:29;11.70;;;3.90;;
77359;SDS011;66426;51.454;7.266;2023-06-19T02:20:30;5.32;;;3.72;;
77359;SDS011;66426;51.454;7.266;2023-06-19T02:21:31;6.18;;;4.10;;
77359;SDS011;66426;51.454;7.266;2023-06-19T02:22:32;5.50;;;3.85;;
77359;SDS011;66426;51.454;7.266;2023-06-19T02:23:33;6.05;;;3.85;;
77359;SDS011;66426;51.454;7.266;2023-06-19T02:24:36;4.80;;;3.70;;
77359;SDS011;66426;51.454;7.266;2023-06-19T02:25:37;5.15;;;3.83;;
77359;SDS011;66426;51.454;7.266;2023-06-19T02:26:38;6.18;;;4.25;;
77359;SDS011;66426;51.454;7.266;2023-06-19T02:27:39;5.00;;;3.55;;
77359;SDS011;66426;51.454;7.266;2023-06-19T02:28:40;5.15;;;3.72;;
77359;SDS011;66426;51.454;7.266;2023-06-19T02:29:41;5.43;;;3.80;;
77359;SDS011;66426;51.454;7.266;2023-06-19T02:30:42;5.43;;;3.92;;
77359;SDS011;66426;51.454;7.266;2023-06-19T02:31:43;5.78;;;3.88;;
77359;SDS011;66426;51.454;7.266;2023-06-19T02:32:44;6.30;;;3.75;;
77359;SDS011;66426;51.454;7.266;2023-06-19T02:33:45;5.95;;;3.97;;
77359;SDS011;66426;51.454;7.266;2023-06-19T02:34:46;6.20;;;3.97;;
77359;SDS011;66426;51.454;7.266;2023-06-19T02:35:47;5.70;;;4.13;;
77359;SDS011;66426;51.454;7.266;2023-06-19T02:36:48;5.50;;;4.10;;
77359;SDS011;66426;51.454;7.266;2023-06-19T02:37:49;5.68;;;4.50;;
77359;SDS011;66426;51.454;7.266;2023-06-19T02:38:50;6.07;;;4.00;;
77359;SDS011;66426;51.454;7.266;2023-06-19T02:39:52;5.45;;;4.00;;
77359;SDS011;66426;51.454;7.266;2023-06-19T02:40:53;4.88;;;3.83;;
77359;SDS011;66426;51.454;7.266;2023-06-19T02:41:54;8.07;;;4.22;;
77359;SDS011;66426;51.454;7.266;2023-06-19T02:42:55;5.80;;;4.13;;
77359;SDS011;66426;51.454;7.266;2023-06-19T02:43:56;5.15;;;4.18;;
77359;SDS011;66426;51.454;7.266;2023-06-19T02:44:57;5.65;;;4.10;;
77359;SDS011;66426;51.454;7.266;2023-06-19T02:46:03;4.97;;;3.90;;
77359;SDS011;66426;51.454;7.266;2023-06-19T02:47:04;7.35;;;4.30;;
77359;SDS011;66426;51.454;7.266;2023-06-19T02:48:06;5.30;;;4.07;;
77359;SDS011;66426;51.454;7.266;2023-06-19T02:49:07;5.72;;;4.03;;
77359;SDS011;66426;51.454;7.266;2023-06-19T02:50:08;5.28;;;4.10;;
77359;SDS011;66426;51.454;7.266;2023-06-19T02:51:09;5.47;;;4.18;;
77359;SDS011;66426;51.454;7.266;2023-06-19T02:52:10;6.35;;;4.47;;
77359;SDS011;66426;51.454;7.266;2023-06-19T02:53:11;5.30;;;4.10;;
77359;SDS011;66426;51.454;7.266;2023-06-19T02:54:12;6.05;;;4.57;;
77359;SDS011;66426;51.454;7.266;2023-06-19T02:55:14;5.70;;;4.15;;
77359;SDS011;66426;51.454;7.266;2023-06-19T02:56:15;5.65;;;4.10;;
77359;SDS011;66426;51.454;7.266;2023-06-19T02:57:16;6.50;;;4.15;;
77359;SDS011;66426;51.454;7.266;2023-06-19T02:58:17;5.40;;;3.95;;
77359;SDS011;66426;51.454;7.266;2023-06-19T02:59:18;6.78;;;4.30;;
77359;SDS011;66426;51.454;7.266;2023-06-19T03:00:19;5.60;;;4.03;;
77359;SDS011;66426;51.454;7.266;2023-06-19T03:01:20;6.38;;;4.15;;
77359;SDS011;66426;51.454;7.266;2023-06-19T03:02:21;5.85;;;4.15;;
77359;SDS011;66426;51.454;7.266;2023-06-19T03:03:22;7.32;;;4.70;;
77359;SDS011;66426;51.454;7.266;2023-06-19T03:04:23;5.25;;;4.53;;
77359;SDS011;66426;51.454;7.266;2023-06-19T03:05:24;5.35;;;4.40;;
77359;SDS011;66426;51.454;7.266;2023-06-19T03:06:27;5.25;;;4.00;;
77359;SDS011;66426;51.454;7.266;2023-06-19T03:07:28;5.97;;;4.22;;
77359;SDS011;66426;51.454;7.266;2023-06-19T03:08:29;5.85;;;4.30;;
77359;SDS011;66426;51.454;7.266;2023-06-19T03:09:30;7.35;;;4.30;;
77359;SDS011;66426;51.454;7.266;2023-06-19T03:10:32;6.18;;;4.25;;
77359;SDS011;66426;51.454;7.266;2023-06-19T03:11:33;7.18;;;4.50;;
77359;SDS011;66426;51.454;7.266;2023-06-19T03:12:34;5.25;;;3.83;;
77359;SDS011;66426;51.454;7.266;2023-06-19T03:13:43;5.68;;;4.20;;
77359;SDS011;66426;51.454;7.266;2023-06-19T03:14:46;7.20;;;4.50;;
77359;SDS011;66426;51.454;7.266;2023-06-19T03:15:47;7.90;;;4.55;;
77359;SDS011;66426;51.454;7.266;2023-06-19T03:16:48;7.50;;;4.13;;
77359;SDS011;66426;51.454;7.266;2023-06-19T03:17:49;7.63;;;4.28;;
77359;SDS011;66426;51.454;7.266;2023-06-19T03:18:50;8.93;;;4.10;;
77359;SDS011;66426;51.454;7.266;2023-06-19T03:19:51;5.72;;;4.32;;
77359;SDS011;66426;51.454;7.266;2023-06-19T03:20:51;5.68;;;3.80;;
77359;SDS011;66426;51.454;7.266;2023-06-19T03:21:52;5.15;;;3.60;;
77359;SDS011;66426;51.454;7.266;2023-06-19T03:22:53;5.28;;;4.03;;
77359;SDS011;66426;51.454;7.266;2023-06-19T03:23:54;6.05;;;4.20;;
77359;SDS011;66426;51.454;7.266;2023-06-19T03:24:55;9.10;;;3.70;;
77359;SDS011;66426;51.454;7.266;2023-06-19T03:25:58;5.15;;;3.47;;
77359;SDS011;66426;51.454;7.266;2023-06-19T03:26:59;5.88;;;3.83;;
77359;SDS011;66426;51.454;7.266;2023-06-19T03:28:00;4.50;;;3.22;;
77359;SDS011;66426;51.454;7.266;2023-06-19T03:29:01;5.53;;;3.78;;
77359;SDS011;66426;51.454;7.266;2023-06-19T03:30:03;6.05;;;3.50;;
77359;SDS011;66426;51.454;7.266;2023-06-19T03:31:06;4.70;;;3.58;;
77359;SDS011;66426;51.454;7.266;2023-06-19T03:32:07;5.47;;;3.50;;
77359;SDS011;66426;51.454;7.266;2023-06-19T03:33:08;6.07;;;3.63;;
77359;SDS011;66426;51.454;7.266;2023-06-19T03:34:09;4.47;;;2.97;;
77359;SDS011;66426;51.454;7.266;2023-06-19T03:35:10;5.15;;;3.22;;
77359;SDS011;66426;51.454;7.266;2023-06-19T03:36:11;6.32;;;3.60;;
77359;SDS011;66426;51.454;7.266;2023-06-19T03:37:12;6.03;;;3.33;;
77359;SDS011;66426;51.454;7.266;2023-06-19T03:38:13;4.90;;;3.05;;
77359;SDS011;66426;51.454;7.266;2023-06-19T03:39:14;4.78;;;3.28;;
77359;SDS011;66426;51.454;7.266;2023-06-19T03:40:15;6.55;;;3.25;;
77359;SDS011;66426;51.454;7.266;2023-06-19T03:41:17;8.38;;;3.85;;
77359;SDS011;66426;51.454;7.266;2023-06-19T03:42:18;5.40;;;3.00;;
77359;SDS011;66426;51.454;7.266;2023-06-19T03:43:19;5.00;;;3.60;;
77359;SDS011;66426;51.454;7.266;2023-06-19T03:44:20;4.80;;;3.42;;
77359;SDS011;66426;51.454;7.266;2023-06-19T03:45:21;4.05;;;2.85;;
77359;SDS011;66426;51.454;7.266;2023-06-19T03:46:22;5.07;;;3.40;;
77359;SDS011;66426;51.454;7.266;2023-06-19T03:47:23;4.68;;;3.20;;
77359;SDS011;66426;51.454;7.266;2023-06-19T03:48:24;4.68;;;3.53;;
77359;SDS011;66426;51.454;7.266;2023-06-19T03:49:25;4.60;;;3.17;;
77359;SDS011;66426;51.454;7.266;2023-06-19T03:50:26;4.85;;;3.30;;
77359;SDS011;66426;51.454;7.266;2023-06-19T03:51:27;4.43;;;3.00;;
77359;SDS011;66426;51.454;7.266;2023-06-19T03:52:29;4.65;;;3.08;;
77359;SDS011;66426;51.454;7.266;2023-06-19T03:53:30;7.07;;;3.10;;
77359;SDS011;66426;51.454;7.266;2023-06-19T03:54:31;5.00;;;3.17;;
77359;SDS011;66426;51.454;7.266;2023-06-19T03:55:32;4.50;;;2.80;;
77359;SDS011;66426;51.454;7.266;2023-06-19T03:56:34;5.35;;;3.17;;
77359;SDS011;66426;51.454;7.266;2023-06-19T03:57:35;4.22;;;3.03;;
77359;SDS011;66426;51.454;7.266;2023-06-19T03:58:36;4.85;;;3.10;;
77359;SDS011;66426;51.454;7.266;2023-06-19T03:59:37;4.85;;;3.20;;
77359;SDS011;66426;51.454;7.266;2023-06-19T04:00:38;6.20;;;3.42;;
77359;SDS011;66426;51.454;7.266;2023-06-19T04:01:39;3.80;;;2.83;;
77359;SDS011;66426;51.454;7.266;2023-06-19T04:02:41;5.32;;;3.20;;
77359;SDS011;66426;51.454;7.266;2023-06-19T04:03:42;7.00;;;3.35;;
77359;SDS011;66426;51.454;7.266;2023-06-19T04:04:43;4.80;;;3.30;;
77359;SDS011;66426;51.454;7.266;2023-06-19T04:05:44;4.30;;;2.92;;
77359;SDS011;66426;51.454;7.266;2023-06-19T04:06:45;3.63;;;2.72;;
77359;SDS011;66426;51.454;7.266;2023-06-19T04:07:47;4.20;;;3.22;;
77359;SDS011;66426;51.454;7.266;2023-06-19T04:08:48;5.68;;;3.38;;
77359;SDS011;66426;51.454;7.266;2023-06-19T04:09:49;4.57;;;3.20;;
77359;SDS011;66426;51.454;7.266;2023-06-19T04:10:50;4.22;;;3.03;;
77359;SDS011;66426;51.454;7.266;2023-06-19T04:11:53;4.85;;;3.28;;
77359;SDS011;66426;51.454;7.266;2023-06-19T04:12:54;6.43;;;3.72;;
77359;SDS011;66426;51.454;7.266;2023-06-19T04:13:56;4.25;;;3.05;;
77359;SDS011;66426;51.454;7.266;2023-06-19T04:14:57;5.18;;;3.22;;
77359;SDS011;66426;51.454;7.266;2023-06-19T04:15:58;4.38;;;3.20;;
77359;SDS011;66426;51.454;7.266;2023-06-19T04:16:58;4.25;;;3.20;;
77359;SDS011;66426;51.454;7.266;2023-06-19T04:17:59;5.57;;;2.85;;
77359;SDS011;66426;51.454;7.266;2023-06-19T04:19:03;4.65;;;3.00;;
77359;SDS011;66426;51.454;7.266;2023-06-19T04:20:04;4.43;;;3.08;;
77359;SDS011;66426;51.454;7.266;2023-06-19T04:21:11;4.03;;;3.00;;
77359;SDS011;66426;51.454;7.266;2023-06-19T04:22:12;6.18;;;3.28;;
77359;SDS011;66426;51.454;7.266;2023-06-19T04:23:13;4.90;;;2.80;;
77359;SDS011;66426;51.454;7.266;2023-06-19T04:24:14;4.35;;;3.30;;
77359;SDS011;66426;51.454;7.266;2023-06-19T04:25:15;3.85;;;2.60;;
77359;SDS011;66426;51.454;7.266;2023-06-19T04:26:16;4.70;;;2.70;;
77359;SDS011;66426;51.454;7.266;2023-06-19T04:27:19;3.30;;;2.42;;
77359;SDS011;66426;51.454;7.266;2023-06-19T04:28:20;6.07;;;2.83;;
77359;SDS011;66426;51.454;7.266;2023-06-19T04:29:21;4.07;;;2.90;;
77359;SDS011;66426;51.454;7.266;2023-06-19T04:30:22;4.05;;;2.70;;
77359;SDS011;66426;51.454;7.266;2023-06-19T04:31:23;5.55;;;2.95;;
77359;SDS011;66426;51.454;7.266;2023-06-19T04:32:26;4.97;;;2.83;;
77359;SDS011;66426;51.454;7.266;2023-06-19T04:33:28;4.72;;;2.78;;
77359;SDS011;66426;51.454;7.266;2023-06-19T04:34:30;4.53;;;2.83;;
77359;SDS011;66426;51.454;7.266;2023-06-19T04:35:32;4.03;;;2.40;;
77359;SDS011;66426;51.454;7.266;2023-06-19T04:36:33;4.35;;;3.00;;
77359;SDS011;66426;51.454;7.266;2023-06-19T04:37:34;4.13;;;2.63;;
77359;SDS011;66426;51.454;7.266;2023-06-19T04:38:35;4.35;;;2.70;;
77359;SDS011;66426;51.454;7.266;2023-06-19T04:39:36;4.53;;;2.80;;
77359;SDS011;66426;51.454;7.266;2023-06-19T04:40:37;3.75;;;2.78;;
77359;SDS011;66426;51.454;7.266;2023-06-19T04:41:38;3.13;;;2.25;;
77359;SDS011;66426;51.454;7.266;2023-06-19T04:42:40;6.38;;;2.95;;
77359;SDS011;66426;51.454;7.266;2023-06-19T04:43:41;3.97;;;2.65;;
77359;SDS011;66426;51.454;7.266;2023-06-19T04:44:42;4.18;;;2.75;;
77359;SDS011;66426;51.454;7.266;2023-06-19T04:45:43;4.70;;;2.80;;
77359;SDS011;66426;51.454;7.266;2023-06-19T04:46:44;6.00;;;3.00;;
77359;SDS011;66426;51.454;7.266;2023-06-19T04:47:45;4.32;;;2.42;;
77359;SDS011;66426;51.454;7.266;2023-06-19T04:48:46;5.10;;;2.90;;
77359;SDS011;66426;51.454;7.266;2023-06-19T04:49:51;3.88;;;2.72;;
77359;SDS011;66426;51.454;7.266;2023-06-19T04:50:52;4.07;;;2.67;;
77359;SDS011;66426;51.454;7.266;2023-06-19T04:51:53;3.83;;;2.85;;
77359;SDS011;66426;51.454;7.266;2023-06-19T04:52:54;3.95;;;2.78;;
77359;SDS011;66426;51.454;7.266;2023-06-19T04:53:55;4.28;;;2.85;;
77359;SDS011;66426;51.454;7.266;2023-06-19T04:54:56;4.50;;;2.90;;
77359;SDS011;66426;51.454;7.266;2023-06-19T04:55:57;5.68;;;2.35;;
77359;SDS011;66426;51.454;7.266;2023-06-19T04:56:58;3.70;;;2.60;;
77359;SDS011;66426;51.454;7.266;2023-06-19T04:58:00;3.42;;;2.50;;
77359;SDS011;66426;51.454;7.266;2023-06-19T04:59:01;4.60;;;2.95;;
77359;SDS011;66426;51.454;7.266;2023-06-19T05:00:03;4.65;;;2.95;;
77359;SDS011;66426;51.454;7.266;2023-06-19T05:01:10;3.90;;;2.60;;
77359;SDS011;66426;51.454;7.266;2023-06-19T05:02:11;4.30;;;2.35;;
77359;SDS011;66426;51.454;7.266;2023-06-19T05:03:12;4.10;;;2.53;;
77359;SDS011;66426;51.454;7.266;2023-06-19T05:04:14;3.60;;;2.35;;
77359;SDS011;66426;51.454;7.266;2023-06-19T05:05:15;4.03;;;2.53;;
77359;SDS011;66426;51.454;7.266;2023-06-19T05:06:16;4.10;;;2.50;;
77359;SDS011;66426;51.454;7.266;2023-06-19T05:07:17;4.05;;;2.50;;
77359;SDS011;66426;51.454;7.266;2023-06-19T05:08:18;4.47;;;2.30;;
77359;SDS011;66426;51.454;7.266;2023-06-19T05:09:19;4.35;;;2.78;;
77359;SDS011;66426;51.454;7.266;2023-06-19T05:10:20;4.22;;;2.35;;
77359;SDS011;66426;51.454;7.266;2023-06-19T05:11:21;3.25;;;2.30;;
77359;SDS011;66426;51.454;7.266;2023-06-19T05:12:22;3.78;;;2.33;;
77359;SDS011;66426;51.454;7.266;2023-06-19T05:13:25;4.32;;;2.60;;
77359;SDS011;66426;51.454;7.266;2023-06-19T05:14:26;3.42;;;2.20;;
77359;SDS011;66426;51.454;7.266;2023-06-19T05:15:26;3.88;;;2.60;;
77359;SDS011;66426;51.454;7.266;2023-06-19T05:16:28;3.78;;;2.60;;
77359;SDS011;66426;51.454;7.266;2023-06-19T05:17:29;7.80;;;2.42;;
77359;SDS011;66426;51.454;7.266;2023-06-19T05:18:30;3.80;;;2.42;;
77359;SDS011;66426;51.454;7.266;2023-06-19T05:19:31;4.93;;;2.67;;
77359;SDS011;66426;51.454;7.266;2023-06-19T05:20:32;4.15;;;2.70;;
77359;SDS011;66426;51.454;7.266;2023-06-19T05:21:33;3.35;;;2.30;;
77359;SDS011;66426;51.454;7.266;2023-06-19T05:22:34;3.70;;;2.35;;
77359;SDS011;66426;51.454;7.266;2023-06-19T05:23:35;5.53;;;2.90;;
77359;SDS011;66426;51.454;7.266;2023-06-19T05:24:35;3.15;;;2.38;;
77359;SDS011;66426;51.454;7.266;2023-06-19T05:25:36;3.90;;;2.60;;
77359;SDS011;66426;51.454;7.266;2023-06-19T05:26:37;4.68;;;2.42;;
77359;SDS011;66426;51.454;7.266;2023-06-19T05:27:38;3.60;;;2.30;;
77359;SDS011;66426;51.454;7.266;2023-06-19T05:28:41;5.05;;;2.63;;
77359;SDS011;66426;51.454;7.266;2023-06-19T05:29:41;3.55;;;2.20;;
77359;SDS011;66426;51.454;7.266;2023-06-19T05:30:42;3.70;;;2.38;;
77359;SDS011;66426;51.454;7.266;2023-06-19T05:31:43;3.50;;;2.53;;
77359;SDS011;66426;51.454;7.266;2023-06-19T05:32:44;3.75;;;2.35;;
77359;SDS011;66426;51.454;7.266;2023-06-19T05:33:45;3.72;;;2.30;;
77359;SDS011;66426;51.454;7.266;2023-06-19T05:34:46;3.45;;;2.30;;
77359;SDS011;66426;51.454;7.266;2023-06-19T05:35:47;3.72;;;2.30;;
77359;SDS011;66426;51.454;7.266;2023-06-19T05:36:52;3.00;;;2.20;;
77359;SDS011;66426;51.454;7.266;2023-06-19T05:37:53;3.70;;;2.50;;
77359;SDS011;66426;51.454;7.266;2023-06-19T05:38:54;3.72;;;2.10;;
77359;SDS011;66426;51.454;7.266;2023-06-19T05:39:55;4.45;;;2.53;;
77359;SDS011;66426;51.454;7.266;2023-06-19T05:40:57;3.55;;;2.50;;
77359;SDS011;66426;51.454;7.266;2023-06-19T05:41:59;4.00;;;2.45;;
77359;SDS011;66426;51.454;7.266;2023-06-19T05:43:00;4.55;;;2.33;;
77359;SDS011;66426;51.454;7.266;2023-06-19T05:44:02;5.28;;;2.50;;
77359;SDS011;66426;51.454;7.266;2023-06-19T05:45:04;3.70;;;2.22;;
77359;SDS011;66426;51.454;7.266;2023-06-19T05:46:05;4.20;;;2.50;;
77359;SDS011;66426;51.454;7.266;2023-06-19T05:47:06;5.72;;;2.65;;
77359;SDS011;66426;51.454;7.266;2023-06-19T05:48:07;6.13;;;2.22;;
77359;SDS011;66426;51.454;7.266;2023-06-19T05:49:08;3.75;;;2.50;;
77359;SDS011;66426;51.454;7.266;2023-06-19T05:50:09;6.30;;;2.67;;
77359;SDS011;66426;51.454;7.266;2023-06-19T05:51:10;3.17;;;2.35;;
77359;SDS011;66426;51.454;7.266;2023-06-19T05:52:11;4.40;;;2.40;;
77359;SDS011;66426;51.454;7.266;2023-06-19T05:53:12;3.40;;;2.47;;
77359;SDS011;66426;51.454;7.266;2023-06-19T05:54:13;3.90;;;2.38;;
77359;SDS011;66426;51.454;7.266;2023-06-19T05:55:14;3.15;;;2.08;;
77359;SDS011;66426;51.454;7.266;2023-06-19T05:56:15;3.08;;;2.13;;
77359;SDS011;66426;51.454;7.266;2023-06-19T05:57:16;4.63;;;2.53;;
77359;SDS011;66426;51.454;7.266;2023-06-19T05:58:21;4.18;;;2.75;;
77359;SDS011;66426;51.454;7.266;2023-06-19T05:59:23;3.13;;;2.38;;
77359;SDS011;66426;51.454;7.266;2023-06-19T06:00:24;4.03;;;2.20;;
77359;SDS011;66426;51.454;7.266;2023-06-19T06:01:25;3.05;;;2.13;;
77359;SDS011;66426;51.454;7.266;2023-06-19T06:02:28;3.30;;;2.15;;
77359;SDS011;66426;51.454;7.266;2023-06-19T06:03:29;3.42;;;2.28;;
77359;SDS011;66426;51.454;7.266;2023-06-19T06:04:31;3.13;;;2.15;;
77359;SDS011;66426;51.454;7.266;2023-06-19T06:05:32;3.28;;;2.13;;
77359;SDS011;66426;51.454;7.266;2023-06-19T06:06:33;5.85;;;2.55;;
77359;SDS011;66426;51.454;7.266;2023-06-19T06:07:35;3.50;;;2.22;;
77359;SDS011;66426;51.454;7.266;2023-06-19T06:08:36;4.00;;;2.55;;
77359;SDS011;66426;51.454;7.266;2023-06-19T06:09:37;3.03;;;1.95;;
77359;SDS011;66426;51.454;7.266;2023-06-19T06:10:38;3.85;;;2.15;;
77359;SDS011;66426;51.454;7.266;2023-06-19T06:11:39;3.63;;;2.20;;
77359;SDS011;66426;51.454;7.266;2023-06-19T06:12:40;3.30;;;2.20;;
77359;SDS011;66426;51.454;7.266;2023-06-19T06:13:41;3.50;;;2.40;;